sensor_id;sensor_type;location;lat;lon;timestamp;P1;durP1;ratioP1;P2;durP2;ratioP2
19189;SDS011;9727;50.200;19.038;2023-03-14T00:00:09;5.80;;;2.23;;
19189;SDS011;9727;50.200;19.038;2023-03-14T00:02:36;3.43;;;2.10;;
19189;SDS011;9727;50.200;19.038;2023-03-14T00:05:03;7.90;;;2.03;;
19189;SDS011;9727;50.200;19.038;2023-03-14T00:07:32;3.80;;;2.20;;
19189;SDS011;9727;50.200;19.038;2023-03-14T00:10:00;2.77;;;1.63;;
19189;SDS011;9727;50.200;19.038;2023-03-14T00:12:27;2.97;;;1.93;;
19189;SDS011;9727;50.200;19.038;2023-03-14T00:14:53;5.73;;;2.33;;
19189;SDS011;9727;50.200;19.038;2023-03-14T00:17:21;3.07;;;2.10;;
19189;SDS011;9727;50.200;19.038;2023-03-14T00:19:48;3.37;;;2.03;;
19189;SDS011;9727;50.200;19.038;2023-03-14T00:22:17;5.00;;;2.00;;
19189;SDS011;9727;50.200;19.038;2023-03-14T00:24:44;6.17;;;2.57;;
19189;SDS011;9727;50.200;19.038;2023-03-14T00:27:10;7.70;;;2.40;;
19189;SDS011;9727;50.200;19.038;2023-03-14T00:29:37;3.63;;;2.00;;
19189;SDS011;9727;50.200;19.038;2023-03-14T00:32:03;4.93;;;2.20;;
19189;SDS011;9727;50.200;19.038;2023-03-14T00:34:32;3.90;;;2.03;;
19189;SDS011;9727;50.200;19.038;2023-03-14T00:36:58;2.80;;;1.80;;
19189;SDS011;9727;50.200;19.038;2023-03-14T00:39:25;2.53;;;1.83;;
19189;SDS011;9727;50.200;19.038;2023-03-14T00:41:52;4.17;;;1.97;;
19189;SDS011;9727;50.200;19.038;2023-03-14T00:44:18;5.03;;;2.23;;
19189;SDS011;9727;50.200;19.038;2023-03-14T00:46:45;3.97;;;2.27;;
19189;SDS011;9727;50.200;19.038;2023-03-14T00:49:12;5.63;;;2.33;;
19189;SDS011;9727;50.200;19.038;2023-03-14T00:51:40;3.53;;;2.10;;
19189;SDS011;9727;50.200;19.038;2023-03-14T00:54:06;5.37;;;2.47;;
19189;SDS011;9727;50.200;19.038;2023-03-14T00:56:35;4.87;;;2.30;;
19189;SDS011;9727;50.200;19.038;2023-03-14T00:59:02;4.97;;;2.10;;
19189;SDS011;9727;50.200;19.038;2023-03-14T01:01:28;3.40;;;2.30;;
19189;SDS011;9727;50.200;19.038;2023-03-14T01:03:55;4.30;;;2.40;;
19189;SDS011;9727;50.200;19.038;2023-03-14T01:06:23;4.00;;;2.00;;
19189;SDS011;9727;50.200;19.038;2023-03-14T01:08:51;3.50;;;2.07;;
19189;SDS011;9727;50.200;19.038;2023-03-14T01:11:19;5.07;;;2.30;;
19189;SDS011;9727;50.200;19.038;2023-03-14T01:13:48;4.43;;;2.10;;
19189;SDS011;9727;50.200;19.038;2023-03-14T01:16:15;5.20;;;2.27;;
19189;SDS011;9727;50.200;19.038;2023-03-14T01:18:43;4.33;;;2.40;;
19189;SDS011;9727;50.200;19.038;2023-03-14T01:21:11;4.30;;;2.13;;
19189;SDS011;9727;50.200;19.038;2023-03-14T01:23:38;7.43;;;2.50;;
19189;SDS011;9727;50.200;19.038;2023-03-14T01:26:06;7.43;;;2.90;;
19189;SDS011;9727;50.200;19.038;2023-03-14T01:28:38;8.07;;;3.00;;
19189;SDS011;9727;50.200;19.038;2023-03-14T01:31:05;5.43;;;2.90;;
19189;SDS011;9727;50.200;19.038;2023-03-14T01:33:33;11.07;;;4.40;;
19189;SDS011;9727;50.200;19.038;2023-03-14T01:35:59;16.67;;;8.80;;
19189;SDS011;9727;50.200;19.038;2023-03-14T01:38:27;18.30;;;8.10;;
19189;SDS011;9727;50.200;19.038;2023-03-14T01:40:54;13.17;;;6.67;;
19189;SDS011;9727;50.200;19.038;2023-03-14T01:43:22;11.53;;;5.87;;
19189;SDS011;9727;50.200;19.038;2023-03-14T01:46:06;7.63;;;4.40;;
19189;SDS011;9727;50.200;19.038;2023-03-14T01:48:40;9.40;;;4.77;;
19189;SDS011;9727;50.200;19.038;2023-03-14T01:51:10;8.07;;;4.27;;
19189;SDS011;9727;50.200;19.038;2023-03-14T01:53:37;9.03;;;4.40;;
19189;SDS011;9727;50.200;19.038;2023-03-14T01:56:05;11.33;;;4.77;;
19189;SDS011;9727;50.200;19.038;2023-03-14T01:58:34;13.37;;;4.73;;
19189;SDS011;9727;50.200;19.038;2023-03-14T02:01:02;7.57;;;4.30;;
19189;SDS011;9727;50.200;19.038;2023-03-14T02:03:29;9.03;;;4.40;;
19189;SDS011;9727;50.200;19.038;2023-03-14T02:05:58;9.87;;;4.57;;
19189;SDS011;9727;50.200;19.038;2023-03-14T02:08:26;12.73;;;6.33;;
19189;SDS011;9727;50.200;19.038;2023-03-14T02:10:53;11.50;;;6.43;;
19189;SDS011;9727;50.200;19.038;2023-03-14T02:13:20;9.97;;;5.73;;
19189;SDS011;9727;50.200;19.038;2023-03-14T02:15:58;9.00;;;5.33;;
19189;SDS011;9727;50.200;19.038;2023-03-14T02:18:24;9.00;;;5.07;;
19189;SDS011;9727;50.200;19.038;2023-03-14T02:20:52;10.90;;;5.17;;
19189;SDS011;9727;50.200;19.038;2023-03-14T02:23:22;7.43;;;4.20;;
19189;SDS011;9727;50.200;19.038;2023-03-14T02:25:51;6.93;;;4.17;;
19189;SDS011;9727;50.200;19.038;2023-03-14T02:28:21;8.93;;;4.00;;
19189;SDS011;9727;50.200;19.038;2023-03-14T02:30:48;6.20;;;3.90;;
19189;SDS011;9727;50.200;19.038;2023-03-14T02:33:15;6.37;;;3.93;;
19189;SDS011;9727;50.200;19.038;2023-03-14T02:35:43;6.63;;;3.80;;
19189;SDS011;9727;50.200;19.038;2023-03-14T02:38:11;7.13;;;3.50;;
19189;SDS011;9727;50.200;19.038;2023-03-14T02:40:41;8.03;;;4.73;;
19189;SDS011;9727;50.200;19.038;2023-03-14T02:43:07;7.97;;;4.63;;
19189;SDS011;9727;50.200;19.038;2023-03-14T02:45:38;10.17;;;4.50;;
19189;SDS011;9727;50.200;19.038;2023-03-14T02:48:06;9.43;;;5.20;;
19189;SDS011;9727;50.200;19.038;2023-03-14T02:50:36;8.50;;;4.53;;
19189;SDS011;9727;50.200;19.038;2023-03-14T02:53:02;10.73;;;5.00;;
19189;SDS011;9727;50.200;19.038;2023-03-14T02:55:29;9.93;;;4.63;;
19189;SDS011;9727;50.200;19.038;2023-03-14T02:57:55;9.23;;;4.23;;
19189;SDS011;9727;50.200;19.038;2023-03-14T03:00:22;11.80;;;5.00;;
19189;SDS011;9727;50.200;19.038;2023-03-14T03:02:50;6.90;;;4.30;;
19189;SDS011;9727;50.200;19.038;2023-03-14T03:05:17;7.83;;;4.00;;
19189;SDS011;9727;50.200;19.038;2023-03-14T03:07:43;6.57;;;4.00;;
19189;SDS011;9727;50.200;19.038;2023-03-14T03:10:10;8.87;;;4.00;;
19189;SDS011;9727;50.200;19.038;2023-03-14T03:12:37;7.40;;;3.80;;
19189;SDS011;9727;50.200;19.038;2023-03-14T03:15:03;9.40;;;3.93;;
19189;SDS011;9727;50.200;19.038;2023-03-14T03:17:30;7.43;;;4.10;;
19189;SDS011;9727;50.200;19.038;2023-03-14T03:20:09;9.47;;;4.07;;
19189;SDS011;9727;50.200;19.038;2023-03-14T03:22:36;10.07;;;4.20;;
19189;SDS011;9727;50.200;19.038;2023-03-14T03:25:03;7.30;;;4.10;;
19189;SDS011;9727;50.200;19.038;2023-03-14T03:27:30;7.93;;;3.90;;
19189;SDS011;9727;50.200;19.038;2023-03-14T03:29:57;7.00;;;4.00;;
19189;SDS011;9727;50.200;19.038;2023-03-14T03:32:24;7.13;;;3.73;;
19189;SDS011;9727;50.200;19.038;2023-03-14T03:34:51;7.57;;;3.83;;
19189;SDS011;9727;50.200;19.038;2023-03-14T03:37:19;8.07;;;4.03;;
19189;SDS011;9727;50.200;19.038;2023-03-14T03:39:49;8.37;;;4.17;;
19189;SDS011;9727;50.200;19.038;2023-03-14T03:42:15;8.40;;;4.50;;
19189;SDS011;9727;50.200;19.038;2023-03-14T03:44:42;6.57;;;3.27;;
19189;SDS011;9727;50.200;19.038;2023-03-14T03:47:11;6.53;;;3.30;;
19189;SDS011;9727;50.200;19.038;2023-03-14T03:49:41;6.27;;;3.33;;
19189;SDS011;9727;50.200;19.038;2023-03-14T03:52:07;6.33;;;3.27;;
19189;SDS011;9727;50.200;19.038;2023-03-14T03:54:36;6.60;;;3.07;;
19189;SDS011;9727;50.200;19.038;2023-03-14T03:57:03;7.73;;;3.37;;
19189;SDS011;9727;50.200;19.038;2023-03-14T03:59:29;5.60;;;2.97;;
19189;SDS011;9727;50.200;19.038;2023-03-14T04:01:56;6.73;;;3.13;;
19189;SDS011;9727;50.200;19.038;2023-03-14T04:04:22;4.60;;;3.00;;
19189;SDS011;9727;50.200;19.038;2023-03-14T04:06:49;7.23;;;2.70;;
19189;SDS011;9727;50.200;19.038;2023-03-14T04:09:15;5.13;;;2.43;;
19189;SDS011;9727;50.200;19.038;2023-03-14T04:11:43;4.93;;;2.53;;
19189;SDS011;9727;50.200;19.038;2023-03-14T04:14:10;6.87;;;2.60;;
19189;SDS011;9727;50.200;19.038;2023-03-14T04:16:37;4.30;;;2.57;;
19189;SDS011;9727;50.200;19.038;2023-03-14T04:19:03;4.97;;;2.40;;
19189;SDS011;9727;50.200;19.038;2023-03-14T04:21:30;7.63;;;2.53;;
19189;SDS011;9727;50.200;19.038;2023-03-14T04:23:56;7.47;;;2.50;;
19189;SDS011;9727;50.200;19.038;2023-03-14T04:26:23;4.57;;;2.30;;
19189;SDS011;9727;50.200;19.038;2023-03-14T04:28:51;3.50;;;2.40;;
19189;SDS011;9727;50.200;19.038;2023-03-14T04:31:18;4.43;;;2.57;;
19189;SDS011;9727;50.200;19.038;2023-03-14T04:33:45;8.23;;;2.63;;
19189;SDS011;9727;50.200;19.038;2023-03-14T04:36:13;4.53;;;2.60;;
19189;SDS011;9727;50.200;19.038;2023-03-14T04:38:40;8.10;;;2.30;;
19189;SDS011;9727;50.200;19.038;2023-03-14T04:41:07;4.10;;;2.30;;
19189;SDS011;9727;50.200;19.038;2023-03-14T04:43:36;4.87;;;2.40;;
19189;SDS011;9727;50.200;19.038;2023-03-14T04:46:04;3.97;;;2.60;;
19189;SDS011;9727;50.200;19.038;2023-03-14T04:48:31;3.10;;;2.20;;
19189;SDS011;9727;50.200;19.038;2023-03-14T04:50:58;5.33;;;2.60;;
19189;SDS011;9727;50.200;19.038;2023-03-14T04:53:24;4.00;;;2.50;;
19189;SDS011;9727;50.200;19.038;2023-03-14T04:55:52;5.23;;;2.17;;
19189;SDS011;9727;50.200;19.038;2023-03-14T04:58:18;4.60;;;2.47;;
19189;SDS011;9727;50.200;19.038;2023-03-14T05:00:45;8.63;;;2.30;;
19189;SDS011;9727;50.200;19.038;2023-03-14T05:03:15;6.07;;;2.13;;
19189;SDS011;9727;50.200;19.038;2023-03-14T05:05:42;5.20;;;2.13;;
19189;SDS011;9727;50.200;19.038;2023-03-14T05:08:09;5.50;;;2.70;;
19189;SDS011;9727;50.200;19.038;2023-03-14T05:10:36;3.87;;;2.20;;
19189;SDS011;9727;50.200;19.038;2023-03-14T05:13:03;5.23;;;2.30;;
19189;SDS011;9727;50.200;19.038;2023-03-14T05:15:29;4.17;;;2.30;;
19189;SDS011;9727;50.200;19.038;2023-03-14T05:17:56;3.40;;;2.13;;
19189;SDS011;9727;50.200;19.038;2023-03-14T05:20:24;4.67;;;2.07;;
19189;SDS011;9727;50.200;19.038;2023-03-14T05:22:51;4.23;;;2.03;;
19189;SDS011;9727;50.200;19.038;2023-03-14T05:25:17;3.23;;;1.80;;
19189;SDS011;9727;50.200;19.038;2023-03-14T05:27:44;5.20;;;2.43;;
19189;SDS011;9727;50.200;19.038;2023-03-14T05:30:10;3.53;;;2.10;;
19189;SDS011;9727;50.200;19.038;2023-03-14T05:32:37;4.67;;;2.20;;
19189;SDS011;9727;50.200;19.038;2023-03-14T05:35:04;5.07;;;2.37;;
19189;SDS011;9727;50.200;19.038;2023-03-14T05:37:32;6.03;;;2.60;;
19189;SDS011;9727;50.200;19.038;2023-03-14T05:39:59;6.23;;;2.40;;
19189;SDS011;9727;50.200;19.038;2023-03-14T05:42:26;5.73;;;2.20;;
19189;SDS011;9727;50.200;19.038;2023-03-14T05:44:53;6.20;;;2.37;;
19189;SDS011;9727;50.200;19.038;2023-03-14T05:47:19;8.77;;;2.50;;
19189;SDS011;9727;50.200;19.038;2023-03-14T05:49:47;3.83;;;2.27;;
19189;SDS011;9727;50.200;19.038;2023-03-14T05:52:13;4.60;;;2.10;;
19189;SDS011;9727;50.200;19.038;2023-03-14T05:54:42;4.60;;;2.30;;
19189;SDS011;9727;50.200;19.038;2023-03-14T05:57:09;2.93;;;2.10;;
19189;SDS011;9727;50.200;19.038;2023-03-14T05:59:36;5.70;;;2.87;;
19189;SDS011;9727;50.200;19.038;2023-03-14T06:02:02;5.73;;;2.60;;
19189;SDS011;9727;50.200;19.038;2023-03-14T06:04:29;3.87;;;2.30;;
19189;SDS011;9727;50.200;19.038;2023-03-14T06:06:55;5.53;;;2.70;;
19189;SDS011;9727;50.200;19.038;2023-03-14T06:09:22;7.23;;;2.90;;
19189;SDS011;9727;50.200;19.038;2023-03-14T06:11:50;6.50;;;2.70;;
19189;SDS011;9727;50.200;19.038;2023-03-14T06:14:17;3.50;;;2.20;;
19189;SDS011;9727;50.200;19.038;2023-03-14T06:16:44;8.53;;;2.83;;
19189;SDS011;9727;50.200;19.038;2023-03-14T06:19:10;4.97;;;2.93;;
19189;SDS011;9727;50.200;19.038;2023-03-14T06:21:37;6.93;;;2.40;;
19189;SDS011;9727;50.200;19.038;2023-03-14T06:24:04;4.87;;;2.77;;
19189;SDS011;9727;50.200;19.038;2023-03-14T06:26:30;5.67;;;2.83;;
19189;SDS011;9727;50.200;19.038;2023-03-14T06:28:59;6.33;;;2.70;;
19189;SDS011;9727;50.200;19.038;2023-03-14T06:31:28;4.83;;;2.70;;
19189;SDS011;9727;50.200;19.038;2023-03-14T06:33:55;5.93;;;2.87;;
19189;SDS011;9727;50.200;19.038;2023-03-14T06:36:21;9.80;;;3.33;;
19189;SDS011;9727;50.200;19.038;2023-03-14T06:38:48;6.30;;;2.67;;
19189;SDS011;9727;50.200;19.038;2023-03-14T06:41:14;5.13;;;2.73;;
19189;SDS011;9727;50.200;19.038;2023-03-14T06:43:41;5.50;;;2.70;;
19189;SDS011;9727;50.200;19.038;2023-03-14T06:46:11;8.57;;;3.20;;
19189;SDS011;9727;50.200;19.038;2023-03-14T06:48:37;8.63;;;2.90;;
19189;SDS011;9727;50.200;19.038;2023-03-14T06:51:04;5.17;;;2.73;;
19189;SDS011;9727;50.200;19.038;2023-03-14T06:53:31;9.17;;;3.20;;
19189;SDS011;9727;50.200;19.038;2023-03-14T06:55:58;4.70;;;2.63;;
19189;SDS011;9727;50.200;19.038;2023-03-14T06:58:25;6.73;;;2.57;;
19189;SDS011;9727;50.200;19.038;2023-03-14T07:00:52;4.60;;;2.87;;
19189;SDS011;9727;50.200;19.038;2023-03-14T07:03:21;5.63;;;2.60;;
19189;SDS011;9727;50.200;19.038;2023-03-14T07:05:47;8.93;;;2.97;;
19189;SDS011;9727;50.200;19.038;2023-03-14T07:08:14;5.13;;;2.50;;
19189;SDS011;9727;50.200;19.038;2023-03-14T07:10:41;7.63;;;2.90;;
19189;SDS011;9727;50.200;19.038;2023-03-14T07:13:07;5.53;;;2.80;;
19189;SDS011;9727;50.200;19.038;2023-03-14T07:15:35;5.77;;;2.60;;
19189;SDS011;9727;50.200;19.038;2023-03-14T07:18:03;7.30;;;2.73;;
19189;SDS011;9727;50.200;19.038;2023-03-14T07:20:31;5.93;;;3.13;;
19189;SDS011;9727;50.200;19.038;2023-03-14T07:22:59;6.17;;;3.30;;
19189;SDS011;9727;50.200;19.038;2023-03-14T07:25:28;10.87;;;2.80;;
19189;SDS011;9727;50.200;19.038;2023-03-14T07:27:54;5.80;;;3.17;;
19189;SDS011;9727;50.200;19.038;2023-03-14T07:30:21;9.20;;;3.20;;
19189;SDS011;9727;50.200;19.038;2023-03-14T07:32:48;7.67;;;3.40;;
19189;SDS011;9727;50.200;19.038;2023-03-14T07:35:14;6.47;;;3.07;;
19189;SDS011;9727;50.200;19.038;2023-03-14T07:37:43;5.87;;;3.10;;
19189;SDS011;9727;50.200;19.038;2023-03-14T07:40:10;4.53;;;2.77;;
19189;SDS011;9727;50.200;19.038;2023-03-14T07:42:40;4.07;;;2.90;;
19189;SDS011;9727;50.200;19.038;2023-03-14T07:45:07;6.30;;;3.00;;
19189;SDS011;9727;50.200;19.038;2023-03-14T07:47:35;6.93;;;2.90;;
19189;SDS011;9727;50.200;19.038;2023-03-14T07:50:02;4.73;;;2.43;;
19189;SDS011;9727;50.200;19.038;2023-03-14T07:52:29;5.13;;;3.10;;
19189;SDS011;9727;50.200;19.038;2023-03-14T07:54:57;7.27;;;3.23;;
19189;SDS011;9727;50.200;19.038;2023-03-14T07:57:23;5.10;;;2.70;;
19189;SDS011;9727;50.200;19.038;2023-03-14T07:59:50;5.13;;;2.90;;
19189;SDS011;9727;50.200;19.038;2023-03-14T08:02:16;7.27;;;3.03;;
19189;SDS011;9727;50.200;19.038;2023-03-14T08:04:45;5.00;;;2.70;;
19189;SDS011;9727;50.200;19.038;2023-03-14T08:07:14;5.10;;;2.73;;
19189;SDS011;9727;50.200;19.038;2023-03-14T08:09:41;4.33;;;2.40;;
19189;SDS011;9727;50.200;19.038;2023-03-14T08:12:10;5.50;;;2.93;;
19189;SDS011;9727;50.200;19.038;2023-03-14T08:14:37;8.60;;;3.20;;
19189;SDS011;9727;50.200;19.038;2023-03-14T08:17:04;8.90;;;3.20;;
19189;SDS011;9727;50.200;19.038;2023-03-14T08:19:33;4.60;;;3.10;;
19189;SDS011;9727;50.200;19.038;2023-03-14T08:22:00;6.87;;;3.00;;
19189;SDS011;9727;50.200;19.038;2023-03-14T08:24:26;5.13;;;3.10;;
19189;SDS011;9727;50.200;19.038;2023-03-14T08:26:53;8.20;;;3.10;;
19189;SDS011;9727;50.200;19.038;2023-03-14T08:29:21;6.97;;;2.90;;
19189;SDS011;9727;50.200;19.038;2023-03-14T08:31:47;6.83;;;3.30;;
19189;SDS011;9727;50.200;19.038;2023-03-14T08:34:15;4.70;;;2.90;;
19189;SDS011;9727;50.200;19.038;2023-03-14T08:36:42;7.80;;;2.90;;
19189;SDS011;9727;50.200;19.038;2023-03-14T08:39:09;6.53;;;2.97;;
19189;SDS011;9727;50.200;19.038;2023-03-14T08:41:36;4.60;;;2.53;;
19189;SDS011;9727;50.200;19.038;2023-03-14T08:44:05;5.23;;;2.93;;
19189;SDS011;9727;50.200;19.038;2023-03-14T08:46:33;6.50;;;2.73;;
19189;SDS011;9727;50.200;19.038;2023-03-14T08:49:00;4.47;;;2.97;;
19189;SDS011;9727;50.200;19.038;2023-03-14T08:51:27;5.90;;;2.77;;
19189;SDS011;9727;50.200;19.038;2023-03-14T08:53:53;5.80;;;2.90;;
19189;SDS011;9727;50.200;19.038;2023-03-14T08:56:20;6.97;;;3.17;;
19189;SDS011;9727;50.200;19.038;2023-03-14T08:58:48;6.10;;;2.83;;
19189;SDS011;9727;50.200;19.038;2023-03-14T09:01:14;9.87;;;2.87;;
19189;SDS011;9727;50.200;19.038;2023-03-14T09:03:56;6.53;;;2.83;;
19189;SDS011;9727;50.200;19.038;2023-03-14T09:06:23;4.57;;;2.43;;
19189;SDS011;9727;50.200;19.038;2023-03-14T09:08:49;5.37;;;3.17;;
19189;SDS011;9727;50.200;19.038;2023-03-14T09:11:16;5.63;;;3.20;;
19189;SDS011;9727;50.200;19.038;2023-03-14T09:13:43;9.40;;;3.20;;
19189;SDS011;9727;50.200;19.038;2023-03-14T09:16:10;4.33;;;2.87;;
19189;SDS011;9727;50.200;19.038;2023-03-14T09:18:37;4.17;;;2.87;;
19189;SDS011;9727;50.200;19.038;2023-03-14T09:21:05;5.90;;;2.67;;
19189;SDS011;9727;50.200;19.038;2023-03-14T09:23:32;5.90;;;2.90;;
19189;SDS011;9727;50.200;19.038;2023-03-14T09:25:59;5.40;;;3.00;;
19189;SDS011;9727;50.200;19.038;2023-03-14T09:28:26;4.93;;;2.80;;
19189;SDS011;9727;50.200;19.038;2023-03-14T09:30:53;6.17;;;3.03;;
19189;SDS011;9727;50.200;19.038;2023-03-14T09:33:20;7.27;;;3.20;;
19189;SDS011;9727;50.200;19.038;2023-03-14T09:35:47;6.63;;;3.10;;
19189;SDS011;9727;50.200;19.038;2023-03-14T09:38:15;6.90;;;2.57;;
19189;SDS011;9727;50.200;19.038;2023-03-14T09:40:42;5.67;;;2.97;;
19189;SDS011;9727;50.200;19.038;2023-03-14T09:43:09;5.87;;;3.00;;
19189;SDS011;9727;50.200;19.038;2023-03-14T09:45:38;6.73;;;2.93;;
19189;SDS011;9727;50.200;19.038;2023-03-14T09:48:14;5.37;;;2.70;;
19189;SDS011;9727;50.200;19.038;2023-03-14T09:50:42;7.00;;;2.57;;
19189;SDS011;9727;50.200;19.038;2023-03-14T09:53:11;5.67;;;2.60;;
19189;SDS011;9727;50.200;19.038;2023-03-14T09:55:41;8.13;;;2.67;;
19189;SDS011;9727;50.200;19.038;2023-03-14T09:58:17;5.50;;;2.67;;
19189;SDS011;9727;50.200;19.038;2023-03-14T10:00:45;6.30;;;2.37;;
19189;SDS011;9727;50.200;19.038;2023-03-14T10:03:21;4.97;;;2.60;;
19189;SDS011;9727;50.200;19.038;2023-03-14T10:05:48;4.07;;;2.57;;
19189;SDS011;9727;50.200;19.038;2023-03-14T10:08:15;5.77;;;2.33;;
19189;SDS011;9727;50.200;19.038;2023-03-14T10:10:43;6.07;;;2.63;;
19189;SDS011;9727;50.200;19.038;2023-03-14T10:13:13;6.67;;;2.67;;
19189;SDS011;9727;50.200;19.038;2023-03-14T10:15:40;6.17;;;2.90;;
19189;SDS011;9727;50.200;19.038;2023-03-14T10:18:10;4.47;;;2.60;;
19189;SDS011;9727;50.200;19.038;2023-03-14T10:20:38;5.23;;;2.63;;
19189;SDS011;9727;50.200;19.038;2023-03-14T10:23:17;4.03;;;2.50;;
19189;SDS011;9727;50.200;19.038;2023-03-14T10:25:57;7.13;;;2.60;;
19189;SDS011;9727;50.200;19.038;2023-03-14T10:28:26;5.23;;;2.60;;
19189;SDS011;9727;50.200;19.038;2023-03-14T10:30:53;5.13;;;2.30;;
19189;SDS011;9727;50.200;19.038;2023-03-14T10:33:20;4.60;;;2.63;;
19189;SDS011;9727;50.200;19.038;2023-03-14T10:35:52;5.17;;;2.80;;
19189;SDS011;9727;50.200;19.038;2023-03-14T10:38:19;5.70;;;2.60;;
19189;SDS011;9727;50.200;19.038;2023-03-14T10:40:50;6.57;;;2.90;;
19189;SDS011;9727;50.200;19.038;2023-03-14T10:43:19;5.33;;;2.80;;
19189;SDS011;9727;50.200;19.038;2023-03-14T10:45:54;5.80;;;2.63;;
19189;SDS011;9727;50.200;19.038;2023-03-14T10:48:24;4.73;;;2.30;;
19189;SDS011;9727;50.200;19.038;2023-03-14T10:50:54;7.77;;;2.70;;
19189;SDS011;9727;50.200;19.038;2023-03-14T10:53:21;4.83;;;3.17;;
19189;SDS011;9727;50.200;19.038;2023-03-14T10:55:48;5.87;;;2.80;;
19189;SDS011;9727;50.200;19.038;2023-03-14T10:58:20;5.17;;;2.80;;
19189;SDS011;9727;50.200;19.038;2023-03-14T11:00:47;5.60;;;2.60;;
19189;SDS011;9727;50.200;19.038;2023-03-14T11:03:16;5.80;;;3.03;;
19189;SDS011;9727;50.200;19.038;2023-03-14T11:05:46;6.33;;;2.67;;
19189;SDS011;9727;50.200;19.038;2023-03-14T11:08:15;6.77;;;2.73;;
19189;SDS011;9727;50.200;19.038;2023-03-14T11:10:44;7.00;;;3.30;;
19189;SDS011;9727;50.200;19.038;2023-03-14T11:13:15;8.10;;;3.07;;
19189;SDS011;9727;50.200;19.038;2023-03-14T11:15:45;9.17;;;3.23;;
19189;SDS011;9727;50.200;19.038;2023-03-14T11:18:20;5.83;;;2.87;;
19189;SDS011;9727;50.200;19.038;2023-03-14T11:20:53;8.03;;;3.23;;
19189;SDS011;9727;50.200;19.038;2023-03-14T11:23:23;5.27;;;2.93;;
19189;SDS011;9727;50.200;19.038;2023-03-14T11:25:52;8.63;;;3.40;;
19189;SDS011;9727;50.200;19.038;2023-03-14T11:28:22;4.70;;;2.63;;
19189;SDS011;9727;50.200;19.038;2023-03-14T11:33:34;7.17;;;3.17;;
19189;SDS011;9727;50.200;19.038;2023-03-14T11:36:03;5.57;;;2.73;;
19189;SDS011;9727;50.200;19.038;2023-03-14T11:38:33;5.47;;;2.90;;
19189;SDS011;9727;50.200;19.038;2023-03-14T11:41:01;11.47;;;3.13;;
19189;SDS011;9727;50.200;19.038;2023-03-14T11:43:28;4.30;;;2.77;;
19189;SDS011;9727;50.200;19.038;2023-03-14T11:45:57;6.93;;;3.20;;
19189;SDS011;9727;50.200;19.038;2023-03-14T11:48:27;5.83;;;3.47;;
19189;SDS011;9727;50.200;19.038;2023-03-14T11:50:57;4.80;;;3.13;;
19189;SDS011;9727;50.200;19.038;2023-03-14T11:53:35;7.47;;;3.40;;
19189;SDS011;9727;50.200;19.038;2023-03-14T11:56:04;7.07;;;3.37;;
19189;SDS011;9727;50.200;19.038;2023-03-14T11:58:37;6.27;;;3.30;;
19189;SDS011;9727;50.200;19.038;2023-03-14T12:01:14;6.67;;;3.63;;
19189;SDS011;9727;50.200;19.038;2023-03-14T12:03:50;8.67;;;3.87;;
19189;SDS011;9727;50.200;19.038;2023-03-14T12:06:22;6.67;;;3.90;;
19189;SDS011;9727;50.200;19.038;2023-03-14T12:08:51;7.53;;;3.67;;
19189;SDS011;9727;50.200;19.038;2023-03-14T12:11:26;8.60;;;3.63;;
19189;SDS011;9727;50.200;19.038;2023-03-14T12:13:54;6.20;;;3.60;;
19189;SDS011;9727;50.200;19.038;2023-03-14T12:22:07;8.80;;;3.57;;
19189;SDS011;9727;50.200;19.038;2023-03-14T12:24:37;8.40;;;3.80;;
19189;SDS011;9727;50.200;19.038;2023-03-14T12:27:04;8.23;;;4.10;;
19189;SDS011;9727;50.200;19.038;2023-03-14T12:29:47;7.27;;;4.00;;
19189;SDS011;9727;50.200;19.038;2023-03-14T12:32:23;6.47;;;3.57;;
19189;SDS011;9727;50.200;19.038;2023-03-14T12:34:50;8.00;;;3.80;;
19189;SDS011;9727;50.200;19.038;2023-03-14T12:37:22;5.87;;;3.87;;
19189;SDS011;9727;50.200;19.038;2023-03-14T12:40:02;8.00;;;4.37;;
19189;SDS011;9727;50.200;19.038;2023-03-14T12:42:38;8.63;;;4.00;;
19189;SDS011;9727;50.200;19.038;2023-03-14T12:48:10;7.47;;;3.90;;
19189;SDS011;9727;50.200;19.038;2023-03-14T12:50:40;8.03;;;3.77;;
19189;SDS011;9727;50.200;19.038;2023-03-14T12:55:56;7.77;;;3.87;;
19189;SDS011;9727;50.200;19.038;2023-03-14T12:58:25;7.90;;;4.20;;
19189;SDS011;9727;50.200;19.038;2023-03-14T13:00:55;11.60;;;4.00;;
19189;SDS011;9727;50.200;19.038;2023-03-14T13:03:23;6.87;;;3.73;;
19189;SDS011;9727;50.200;19.038;2023-03-14T13:05:53;8.30;;;3.97;;
19189;SDS011;9727;50.200;19.038;2023-03-14T13:08:32;9.40;;;3.67;;
19189;SDS011;9727;50.200;19.038;2023-03-14T13:11:01;5.87;;;3.37;;
19189;SDS011;9727;50.200;19.038;2023-03-14T13:13:27;7.90;;;3.30;;
19189;SDS011;9727;50.200;19.038;2023-03-14T13:15:54;6.67;;;3.10;;
19189;SDS011;9727;50.200;19.038;2023-03-14T13:18:26;10.17;;;3.10;;
19189;SDS011;9727;50.200;19.038;2023-03-14T13:20:53;6.60;;;3.33;;
19189;SDS011;9727;50.200;19.038;2023-03-14T13:23:21;5.03;;;3.10;;
19189;SDS011;9727;50.200;19.038;2023-03-14T13:25:48;7.27;;;2.93;;
19189;SDS011;9727;50.200;19.038;2023-03-14T13:28:16;6.13;;;2.90;;
19189;SDS011;9727;50.200;19.038;2023-03-14T13:30:42;6.17;;;3.13;;
19189;SDS011;9727;50.200;19.038;2023-03-14T13:33:14;4.97;;;3.17;;
19189;SDS011;9727;50.200;19.038;2023-03-14T13:35:42;5.57;;;2.77;;
19189;SDS011;9727;50.200;19.038;2023-03-14T13:38:17;6.77;;;3.67;;
19189;SDS011;9727;50.200;19.038;2023-03-14T13:40:44;6.87;;;3.30;;
19189;SDS011;9727;50.200;19.038;2023-03-14T13:43:16;9.17;;;2.97;;
19189;SDS011;9727;50.200;19.038;2023-03-14T13:45:51;6.50;;;3.50;;
19189;SDS011;9727;50.200;19.038;2023-03-14T13:48:18;7.17;;;3.30;;
19189;SDS011;9727;50.200;19.038;2023-03-14T13:50:46;8.33;;;3.17;;
19189;SDS011;9727;50.200;19.038;2023-03-14T13:53:15;6.40;;;3.30;;
19189;SDS011;9727;50.200;19.038;2023-03-14T13:55:41;5.10;;;3.37;;
19189;SDS011;9727;50.200;19.038;2023-03-14T13:58:23;4.37;;;2.53;;
19189;SDS011;9727;50.200;19.038;2023-03-14T14:00:56;7.47;;;4.40;;
19189;SDS011;9727;50.200;19.038;2023-03-14T14:03:23;7.80;;;3.63;;
19189;SDS011;9727;50.200;19.038;2023-03-14T14:05:50;6.43;;;4.27;;
19189;SDS011;9727;50.200;19.038;2023-03-14T14:08:16;4.37;;;3.13;;
19189;SDS011;9727;50.200;19.038;2023-03-14T14:10:43;5.80;;;3.73;;
19189;SDS011;9727;50.200;19.038;2023-03-14T14:13:14;5.63;;;4.00;;
19189;SDS011;9727;50.200;19.038;2023-03-14T14:15:54;4.70;;;2.43;;
19189;SDS011;9727;50.200;19.038;2023-03-14T14:18:22;4.93;;;2.47;;
19189;SDS011;9727;50.200;19.038;2023-03-14T14:20:50;3.43;;;2.70;;
19189;SDS011;9727;50.200;19.038;2023-03-14T14:23:17;4.73;;;3.07;;
19189;SDS011;9727;50.200;19.038;2023-03-14T14:25:50;5.27;;;3.00;;
19189;SDS011;9727;50.200;19.038;2023-03-14T14:28:21;6.50;;;3.20;;
19189;SDS011;9727;50.200;19.038;2023-03-14T14:30:59;6.23;;;3.90;;
19189;SDS011;9727;50.200;19.038;2023-03-14T14:33:26;5.17;;;3.30;;
19189;SDS011;9727;50.200;19.038;2023-03-14T14:35:53;4.97;;;3.33;;
19189;SDS011;9727;50.200;19.038;2023-03-14T14:38:20;5.03;;;3.00;;
19189;SDS011;9727;50.200;19.038;2023-03-14T14:40:48;4.97;;;3.50;;
19189;SDS011;9727;50.200;19.038;2023-03-14T14:43:17;5.87;;;3.30;;
19189;SDS011;9727;50.200;19.038;2023-03-14T14:45:43;3.90;;;2.93;;
19189;SDS011;9727;50.200;19.038;2023-03-14T14:48:15;5.03;;;3.17;;
19189;SDS011;9727;50.200;19.038;2023-03-14T14:50:48;5.13;;;3.37;;
19189;SDS011;9727;50.200;19.038;2023-03-14T14:53:22;8.07;;;4.20;;
19189;SDS011;9727;50.200;19.038;2023-03-14T14:55:50;7.23;;;3.70;;
19189;SDS011;9727;50.200;19.038;2023-03-14T14:58:19;4.80;;;3.20;;
19189;SDS011;9727;50.200;19.038;2023-03-14T15:00:50;5.83;;;2.73;;
19189;SDS011;9727;50.200;19.038;2023-03-14T15:03:18;5.47;;;2.70;;
19189;SDS011;9727;50.200;19.038;2023-03-14T15:05:45;5.77;;;3.10;;
19189;SDS011;9727;50.200;19.038;2023-03-14T15:08:15;5.97;;;3.47;;